Time;durP1;ratioP1;P1;durP2;ratioP2;P2;SDS_P1;SDS_P2;PMS_P1;PMS_P2;Temp;Humidity;BMP_temperature;BMP_pressure;BME280_temperature;BME280_humidity;BME280_pressure;Samples;Min_cycle;Max_cycle;Signal;HPM_P1;HPM_P2
2022/03/08 00:01:53;;;;;;;28.40;16.90;;;;;;;-1.43;70.82;100504.45;215062;1274;140783;-69
2022/03/08 00:06:57;;;;;;;44.90;21.70;;;;;;;-1.51;70.94;100499.83;215809;1274;140968;-70
2022/03/08 00:12:02;;;;;;;32.60;17.00;;;;;;;-1.60;70.93;100498.73;215925;1274;142436;-73
2022/03/08 00:17:06;;;;;;;20.30;11.40;;;;;;;-1.65;70.85;100502.17;214399;1274;140595;-68
2022/03/08 00:22:10;;;;;;;20.70;10.20;;;;;;;-1.71;70.79;100507.79;214873;1274;141298;-67
2022/03/08 00:27:14;;;;;;;14.30;10.70;;;;;;;-1.79;71.28;100508.63;215468;1274;141033;-66
2022/03/08 00:32:19;;;;;;;19.10;9.50;;;;;;;-1.78;71.67;100509.59;213060;1274;144032;-73
2022/03/08 00:37:23;;;;;;;13.90;9.60;;;;;;;-1.83;71.76;100513.52;213049;1274;140706;-67
2022/03/08 00:42:26;;;;;;;19.40;11.40;;;;;;;-1.86;71.60;100516.81;213741;1274;142176;-69
2022/03/08 00:47:31;;;;;;;21.20;11.60;;;;;;;-1.90;71.77;100521.17;214336;1274;141946;-72
2022/03/08 00:52:36;;;;;;;22.10;12.70;;;;;;;-2.01;71.75;100524.73;212921;1274;142556;-68
2022/03/08 00:57:42;;;;;;;18.00;10.10;;;;;;;-2.14;71.76;100527.61;212997;1274;141196;-66
2022/03/08 01:02:47;;;;;;;23.50;10.20;;;;;;;-2.28;71.82;100530.23;213283;1274;140840;-66
2022/03/08 01:07:53;;;;;;;17.60;9.50;;;;;;;-2.42;71.81;100527.22;215613;1274;141224;-64
2022/03/08 01:12:57;;;;;;;16.90;9.20;;;;;;;-2.47;71.63;100523.70;213720;1274;154190;-67
2022/03/08 01:18:02;;;;;;;16.70;8.70;;;;;;;-2.48;71.91;100512.79;213922;1274;140410;-69
2022/03/08 01:23:06;;;;;;;14.40;8.90;;;;;;;-2.49;72.08;100504.71;214416;1274;140076;-69
2022/03/08 01:28:10;;;;;;;14.70;7.50;;;;;;;-2.53;72.15;100504.77;214306;1274;139826;-72
2022/03/08 01:33:15;;;;;;;13.30;7.60;;;;;;;-2.59;72.06;100503.36;214808;1274;153676;-70
2022/03/08 01:38:18;;;;;;;17.50;8.90;;;;;;;-2.68;72.14;100517.45;214517;1274;139958;-68
2022/03/08 01:43:22;;;;;;;16.60;7.50;;;;;;;-2.79;72.14;100520.52;213457;1274;143287;-69
2022/03/08 01:48:27;;;;;;;16.70;7.90;;;;;;;-2.91;72.05;100517.52;214047;1274;140258;-69
2022/03/08 01:53:31;;;;;;;10.40;6.90;;;;;;;-2.94;72.29;100517.48;213497;1274;140448;-69
2022/03/08 01:58:36;;;;;;;18.20;9.20;;;;;;;-2.92;72.56;100524.63;215455;1273;141513;-70
2022/03/08 02:03:40;;;;;;;14.50;7.50;;;;;;;-2.97;72.42;100522.10;216116;1274;140370;-67
2022/03/08 02:08:45;;;;;;;15.10;6.30;;;;;;;-3.06;72.47;100519.13;214946;1273;140142;-64
2022/03/08 02:13:49;;;;;;;13.00;7.30;;;;;;;-3.14;72.56;100510.42;215706;1274;141242;-66
2022/03/08 02:18:54;;;;;;;11.80;5.90;;;;;;;-3.19;72.77;100507.17;215733;1274;140643;-66
2022/03/08 02:23:58;;;;;;;24.20;7.50;;;;;;;-3.18;72.97;100504.00;215113;1274;140264;-67
2022/03/08 02:29:05;;;;;;;13.70;8.10;;;;;;;-3.07;72.97;100504.06;214225;1274;903682;-67
2022/03/08 02:34:09;;;;;;;12.00;7.30;;;;;;;-2.97;73.35;100507.08;214501;1274;140800;-65
2022/03/08 02:39:13;;;;;;;15.40;8.10;;;;;;;-2.89;73.52;100510.95;213309;1274;139609;-66
2022/03/08 02:44:17;;;;;;;18.40;10.00;;;;;;;-2.80;73.91;100508.99;215022;1274;140066;-67
2022/03/08 02:49:23;;;;;;;19.40;8.60;;;;;;;-2.73;74.18;100517.53;214951;1274;140280;-64
2022/03/08 02:54:27;;;;;;;18.90;8.70;;;;;;;-2.63;74.56;100514.94;214057;1273;139917;-66
2022/03/08 02:59:30;;;;;;;14.20;8.40;;;;;;;-2.45;74.67;100525.76;214859;1273;140815;-67
2022/03/08 03:04:34;;;;;;;22.60;10.50;;;;;;;-2.27;74.69;100520.59;213236;1274;140543;-70
2022/03/08 03:09:38;;;;;;;19.40;9.40;;;;;;;-2.19;74.96;100524.89;214062;1274;140672;-69
2022/03/08 03:14:42;;;;;;;14.40;8.60;;;;;;;-2.12;75.13;100532.09;214133;1274;140633;-67
2022/03/08 03:19:47;;;;;;;20.80;10.00;;;;;;;-2.03;75.21;100534.67;213485;1274;140831;-67
2022/03/08 03:24:50;;;;;;;19.60;8.90;;;;;;;-1.90;75.17;100531.22;213067;1274;140013;-69
2022/03/08 03:29:54;;;;;;;15.80;9.20;;;;;;;-1.79;75.16;100534.27;213799;1274;140480;-70
2022/03/08 03:35:00;;;;;;;16.30;9.90;;;;;;;-1.68;75.52;100540.77;214500;1274;140398;-71
2022/03/08 03:40:05;;;;;;;17.40;10.40;;;;;;;-1.60;75.40;100543.05;214054;1274;139664;-70
2022/03/08 03:45:11;;;;;;;18.50;9.40;;;;;;;-1.60;75.34;100542.50;214986;1274;140936;-69
2022/03/08 03:50:16;;;;;;;16.60;9.00;;;;;;;-1.59;75.40;100545.20;213453;1274;139718;-67
2022/03/08 03:55:21;;;;;;;14.00;7.00;;;;;;;-1.50;75.45;100549.64;213143;1274;141019;-66
2022/03/08 04:00:25;;;;;;;17.50;7.90;;;;;;;-1.45;75.27;100552.10;214581;1274;142421;-68
2022/03/08 04:05:31;;;;;;;20.10;9.30;;;;;;;-1.43;75.44;100556.80;214583;1273;139704;-67
2022/03/08 04:10:35;;;;;;;20.30;10.30;;;;;;;-1.38;75.45;100564.41;213680;1274;140648;-67
2022/03/08 04:15:39;;;;;;;25.50;11.70;;;;;;;-1.34;75.64;100566.34;214575;1274;140945;-68
2022/03/08 04:20:44;;;;;;;10.90;8.80;;;;;;;-1.25;75.55;100569.21;213750;1274;141260;-67
2022/03/08 04:25:49;;;;;;;15.80;7.60;;;;;;;-1.16;75.57;100568.52;215949;1274;140303;-67
2022/03/08 04:30:54;;;;;;;18.00;9.90;;;;;;;-1.11;75.55;100573.07;213725;1274;141128;-67
2022/03/08 04:35:59;;;;;;;14.30;7.40;;;;;;;-1.08;75.47;100560.56;215788;1274;140253;-66
2022/03/08 04:41:08;;;;;;;19.60;8.50;;;;;;;-1.08;75.40;100559.18;215649;1274;140126;-67
2022/03/08 04:46:13;;;;;;;17.30;8.10;;;;;;;-0.98;75.28;100566.73;213808;1274;140453;-65
2022/03/08 04:51:18;;;;;;;16.30;7.70;;;;;;;-0.91;75.38;100564.50;215403;1274;140528;-67
2022/03/08 04:56:23;;;;;;;15.40;8.20;;;;;;;-0.91;75.31;100566.77;214425;1274;140387;-68
2022/03/08 05:01:28;;;;;;;12.90;7.20;;;;;;;-0.96;75.23;100582.08;215226;1274;141505;-67
2022/03/08 05:06:36;;;;;;;14.60;7.50;;;;;;;-1.00;75.58;100582.05;214000;1274;140497;-68
2022/03/08 05:11:40;;;;;;;14.20;9.00;;;;;;;-1.01;75.49;100586.02;214935;1274;140723;-70
2022/03/08 05:16:45;;;;;;;17.20;10.70;;;;;;;-0.95;75.39;100582.52;214197;1274;140823;-68
2022/03/08 05:21:49;;;;;;;23.00;10.40;;;;;;;-0.87;75.71;100578.62;213133;1274;140703;-68
2022/03/08 05:26:54;;;;;;;17.10;8.70;;;;;;;-0.83;75.64;100582.06;214480;1274;141958;-71
2022/03/08 05:31:58;;;;;;;14.30;7.60;;;;;;;-0.79;75.67;100591.92;214470;1274;140064;-68
2022/03/08 05:37:04;;;;;;;13.70;7.00;;;;;;;-0.77;75.73;100596.46;214392;1274;140277;-68
2022/03/08 05:42:08;;;;;;;16.20;7.60;;;;;;;-0.73;75.58;100604.86;213175;1276;140389;-67
2022/03/08 05:47:18;;;;;;;13.30;8.30;;;;;;;-0.66;75.71;100606.86;213623;1274;140247;-66
2022/03/08 05:52:21;;;;;;;12.70;7.50;;;;;;;-0.58;75.70;100611.66;213201;1274;139878;-65
2022/03/08 05:57:25;;;;;;;14.30;7.50;;;;;;;-0.58;75.55;100622.30;213693;1274;141960;-66
2022/03/08 06:02:29;;;;;;;16.30;7.40;;;;;;;-0.64;75.58;100626.77;214719;1274;139910;-73
2022/03/08 06:07:33;;;;;;;19.00;8.80;;;;;;;-0.69;75.58;100630.88;214618;1274;140376;-70
2022/03/08 06:12:37;;;;;;;14.50;8.40;;;;;;;-0.73;75.19;100634.86;214362;1274;143190;-72
2022/03/08 06:17:41;;;;;;;17.90;10.40;;;;;;;-0.68;75.40;100633.68;214702;1276;141437;-72
2022/03/08 06:22:44;;;;;;;15.20;8.80;;;;;;;-0.64;75.47;100625.72;212857;1274;141237;-72
2022/03/08 06:27:48;;;;;;;26.70;11.10;;;;;;;-0.64;75.38;100621.84;214815;1274;141699;-72
2022/03/08 06:32:52;;;;;;;18.10;9.80;;;;;;;-0.59;75.55;100627.79;216162;1273;142230;-69
2022/03/08 06:37:57;;;;;;;24.20;11.10;;;;;;;-0.49;75.68;100627.38;216094;1274;143035;-73
2022/03/08 06:43:01;;;;;;;18.00;9.40;;;;;;;-0.37;75.20;100628.58;216028;1274;140836;-70
2022/03/08 06:48:05;;;;;;;21.20;12.00;;;;;;;-0.27;74.98;100645.27;213872;1274;141205;-69
2022/03/08 06:53:08;;;;;;;20.30;11.50;;;;;;;-0.19;74.88;100642.58;214823;1274;143830;-71
2022/03/08 06:58:13;;;;;;;20.30;12.90;;;;;;;-0.17;74.86;100657.10;213271;1274;141975;-70
2022/03/08 07:03:18;;;;;;;24.30;12.10;;;;;;;-0.14;75.12;100651.88;214447;1274;141327;-68
2022/03/08 07:08:22;;;;;;;22.50;13.80;;;;;;;-0.08;74.99;100648.36;215387;1274;141575;-73
2022/03/08 07:13:27;;;;;;;23.00;11.80;;;;;;;0.02;74.86;100652.02;214926;1274;141590;-77
2022/03/08 07:18:31;;;;;;;40.20;25.30;;;;;;;0.13;74.62;100646.58;214858;1274;141837;-72
2022/03/08 07:23:35;;;;;;;20.40;13.00;;;;;;;0.25;74.77;100650.70;214382;1274;140667;-68
2022/03/08 07:28:41;;;;;;;21.70;14.80;;;;;;;0.28;74.82;100657.54;214318;1272;140203;-63
2022/03/08 07:33:45;;;;;;;20.80;11.20;;;;;;;0.32;74.52;100657.11;214182;1274;204731;-68
2022/03/08 07:38:50;;;;;;;24.90;13.40;;;;;;;0.43;74.74;100661.39;214780;1274;142116;-69
2022/03/08 07:43:53;;;;;;;22.10;11.60;;;;;;;0.62;74.62;100656.13;214324;1274;141703;-74
2022/03/08 07:48:58;;;;;;;24.40;13.60;;;;;;;0.78;74.40;100653.61;213939;1274;140469;-76
2022/03/08 07:54:23;;;;;;;14.30;10.50;;;;;;;0.98;74.48;100652.63;213754;1274;141681;-73
2022/03/08 07:59:29;;;;;;;14.90;9.50;;;;;;;1.03;74.20;100654.27;213036;1275;140726;-74
2022/03/08 08:04:33;;;;;;;15.60;9.50;;;;;;;1.02;73.82;100661.02;214129;1274;141184;-70
2022/03/08 08:09:38;;;;;;;23.60;11.40;;;;;;;1.07;73.82;100660.87;214783;1274;140493;-71
2022/03/08 08:14:42;;;;;;;16.00;9.70;;;;;;;1.10;74.09;100664.83;214917;1274;141544;-71
2022/03/08 08:19:47;;;;;;;17.20;11.30;;;;;;;1.14;73.93;100669.30;214510;1274;142166;-73
2022/03/08 08:24:51;;;;;;;15.70;8.40;;;;;;;1.10;73.83;100676.48;215182;1273;141765;-73
2022/03/08 08:30:00;;;;;;;22.30;11.30;;;;;;;1.14;73.81;100677.84;215539;1274;141818;-69
2022/03/08 08:35:05;;;;;;;17.00;9.00;;;;;;;1.26;73.61;100679.46;215909;1274;141792;-70
2022/03/08 08:40:11;;;;;;;12.90;7.80;;;;;;;1.38;73.70;100671.76;215993;1274;139989;-71
2022/03/08 08:45:15;;;;;;;12.50;10.20;;;;;;;1.65;73.43;100677.60;215906;1274;143212;-74
2022/03/08 08:50:19;;;;;;;10.00;6.80;;;;;;;1.86;73.35;100678.13;215810;1274;141280;-72
2022/03/08 08:55:29;;;;;;;13.80;8.40;;;;;;;2.02;72.78;100681.73;215327;1274;143544;-71
2022/03/08 09:01:13;;;;;;;17.70;9.40;;;;;;;2.22;72.79;100674.79;214414;1274;142041;-74
2022/03/08 09:06:17;;;;;;;12.40;7.50;;;;;;;2.43;72.34;100678.27;215176;1274;140706;-70
2022/03/08 09:11:21;;;;;;;7.80;5.30;;;;;;;2.67;72.45;100666.70;214001;1274;140330;-77
2022/03/08 09:16:26;;;;;;;6.30;4.30;;;;;;;2.92;72.37;100664.95;213634;1274;141538;-72
2022/03/08 09:21:32;;;;;;;6.10;4.50;;;;;;;3.07;71.47;100663.70;214145;1274;141191;-73
2022/03/08 09:26:36;;;;;;;9.00;4.80;;;;;;;3.17;71.19;100660.38;213659;1274;139788;-69
2022/03/08 09:31:41;;;;;;;7.70;3.90;;;;;;;3.29;70.88;100651.04;214216;1274;139671;-74
2022/03/08 09:36:46;;;;;;;3.50;3.00;;;;;;;3.40;70.46;100646.31;213623;1276;139510;-71
2022/03/08 09:41:55;;;;;;;4.40;3.90;;;;;;;3.83;70.48;100642.84;213711;1274;140824;-76
2022/03/08 09:47:00;;;;;;;4.70;4.30;;;;;;;4.02;69.61;100643.47;213268;1274;140234;-73
2022/03/08 09:52:05;;;;;;;6.60;3.00;;;;;;;3.89;69.23;100647.26;212940;1275;140910;-69
2022/03/08 09:57:13;;;;;;;5.70;4.60;;;;;;;3.89;69.23;100641.29;214122;1274;139478;-70
2022/03/08 10:02:17;;;;;;;11.80;4.70;;;;;;;4.02;69.08;100633.13;213976;1274;141712;-74
2022/03/08 10:07:22;;;;;;;4.60;3.60;;;;;;;4.25;68.63;100624.73;214557;1274;141113;-75
2022/03/08 10:12:28;;;;;;;4.50;3.30;;;;;;;4.58;68.57;100608.51;214319;1274;139240;-69
2022/03/08 10:17:39;;;;;;;5.70;3.50;;;;;;;4.70;67.86;100597.73;214001;1276;140356;-70
2022/03/08 10:22:46;;;;;;;5.10;3.30;;;;;;;4.89;67.88;100583.39;214644;1274;139283;-70
2022/03/08 10:27:57;;;;;;;6.70;4.70;;;;;;;5.00;67.35;100576.52;214573;1274;139920;-69
2022/03/08 10:33:01;;;;;;;6.20;5.00;;;;;;;5.04;66.62;100570.77;214447;1274;141126;-66
2022/03/08 10:38:13;;;;;;;7.40;4.30;;;;;;;5.20;66.44;100563.02;214353;1274;140837;-67
2022/03/08 10:43:18;;;;;;;5.10;3.90;;;;;;;5.36;66.43;100565.08;215837;1274;139811;-68
2022/03/08 10:48:26;;;;;;;6.90;4.20;;;;;;;5.29;65.40;100561.24;215971;1274;140076;-70
2022/03/08 10:53:30;;;;;;;6.50;4.10;;;;;;;5.27;65.30;100552.74;215765;1274;141141;-70
2022/03/08 10:58:46;;;;;;;4.40;3.20;;;;;;;5.12;64.91;100552.80;216114;1274;140175;-74
2022/03/08 11:03:57;;;;;;;6.70;4.80;;;;;;;5.14;65.02;100537.95;215922;1274;139769;-76
2022/03/08 11:09:03;;;;;;;7.60;4.60;;;;;;;5.22;65.07;100535.11;214951;1274;140501;-72
2022/03/08 11:14:12;;;;;;;7.00;4.90;;;;;;;5.53;64.94;100536.77;216140;1274;140452;-74
2022/03/08 11:19:16;;;;;;;5.10;4.60;;;;;;;5.76;64.47;100532.08;213177;1274;140336;-72
2022/03/08 11:24:21;;;;;;;11.70;8.20;;;;;;;5.90;63.89;100534.76;214783;1274;141065;-70
2022/03/08 11:29:29;;;;;;;11.70;10.40;;;;;;;5.98;63.66;100529.02;214979;1274;140033;-76
2022/03/08 11:34:41;;;;;;;6.80;4.30;;;;;;;6.02;63.26;100527.48;213413;1274;141560;-73
2022/03/08 11:40:15;;;;;;;4.40;4.00;;;;;;;6.16;63.05;100521.75;213566;1276;163535;-72
2022/03/08 11:45:23;;;;;;;7.80;3.90;;;;;;;6.13;62.38;100524.73;213761;1274;142963;-72
2022/03/08 11:50:34;;;;;;;5.70;4.30;;;;;;;6.04;62.05;100526.27;213345;1276;140834;-74
2022/03/08 11:55:47;;;;;;;4.90;4.30;;;;;;;6.10;62.22;100530.93;214540;1274;140765;-75
2022/03/08 12:00:59;;;;;;;4.90;3.60;;;;;;;5.99;61.63;100526.09;214117;1274;139795;-78
2022/03/08 12:06:09;;;;;;;6.50;4.10;;;;;;;6.03;61.36;100526.30;213859;1274;140930;-73
2022/03/08 12:11:36;;;;;;;3.40;3.00;;;;;;;6.06;61.30;100526.02;213091;1274;140083;-75
2022/03/08 12:17:14;;;;;;;2.40;2.20;;;;;;;6.23;61.25;100528.31;214971;1274;139695;-76
2022/03/08 12:22:23;;;;;;;5.80;3.20;;;;;;;6.22;60.54;100523.81;214877;1274;139546;-75
2022/03/08 12:27:48;;;;;;;5.30;2.40;;;;;;;6.04;59.35;100529.96;214553;1274;139786;-75
2022/03/08 12:32:57;;;;;;;4.00;3.40;;;;;;;5.89;59.63;100537.25;213851;1275;140537;-74
2022/03/08 12:38:05;;;;;;;6.60;3.70;;;;;;;5.74;59.86;100544.64;213943;1275;140602;-75
2022/03/08 12:43:12;;;;;;;6.00;3.90;;;;;;;5.80;59.79;100543.73;215055;1274;140367;-78
2022/03/08 12:48:22;;;;;;;18.60;9.50;;;;;;;5.77;59.69;100544.27;214961;1274;139302;-73
2022/03/08 12:53:31;;;;;;;9.30;4.50;;;;;;;5.74;60.02;100545.89;215394;1276;140180;-72
2022/03/08 12:58:42;;;;;;;4.10;2.70;;;;;;;5.79;59.29;100538.38;215625;1274;139936;-77
2022/03/08 13:03:48;;;;;;;4.00;2.40;;;;;;;5.73;58.63;100530.66;216002;1274;142516;-76
2022/03/08 13:08:52;;;;;;;3.10;2.60;;;;;;;5.83;59.22;100532.45;215948;1274;142003;-76
2022/03/08 13:13:57;;;;;;;9.10;5.00;;;;;;;5.85;58.98;100533.25;216047;1274;141817;-76
2022/03/08 13:19:02;;;;;;;5.00;3.00;;;;;;;5.92;59.22;100538.41;214908;1274;140534;-78
2022/03/08 13:24:13;;;;;;;4.40;3.60;;;;;;;6.01;58.75;100539.88;213423;1274;140669;-75
2022/03/08 13:29:19;;;;;;;5.10;3.60;;;;;;;5.87;58.93;100544.48;214263;1274;141214;-74
2022/03/08 13:34:26;;;;;;;8.20;4.10;;;;;;;5.70;58.99;100549.59;213672;1273;139940;-76
2022/03/08 13:39:31;;;;;;;3.80;3.50;;;;;;;5.57;59.15;100547.73;213395;1274;139246;-75
2022/03/08 13:44:36;;;;;;;6.50;3.80;;;;;;;5.56;59.19;100548.36;214574;1273;141686;-75
2022/03/08 13:49:42;;;;;;;8.10;4.30;;;;;;;5.55;59.49;100548.11;213275;1276;139983;-69
2022/03/08 13:54:47;;;;;;;8.50;5.30;;;;;;;5.54;59.30;100546.02;213134;1276;140279;-74
2022/03/08 13:59:53;;;;;;;7.40;4.00;;;;;;;5.56;59.55;100549.23;214330;1274;140257;-75
2022/03/08 14:05:06;;;;;;;5.00;3.70;;;;;;;5.63;59.88;100552.83;213465;1274;139524;-75
2022/03/08 14:10:12;;;;;;;5.40;4.90;;;;;;;5.68;59.17;100554.13;213677;1274;141098;-75
2022/03/08 14:15:19;;;;;;;3.30;3.00;;;;;;;5.77;59.43;100546.63;214953;1274;139968;-77
2022/03/08 14:20:25;;;;;;;4.60;3.50;;;;;;;5.86;59.21;100542.16;213496;1274;139279;-75
2022/03/08 14:25:30;;;;;;;4.30;3.30;;;;;;;5.86;59.12;100540.05;214195;1274;139978;-76
2022/03/08 14:30:34;;;;;;;7.40;5.40;;;;;;;5.70;58.51;100533.14;214997;1274;519399;-76
2022/03/08 14:35:41;;;;;;;4.80;3.40;;;;;;;5.55;59.12;100528.41;214879;1274;139984;-72
2022/03/08 14:40:46;;;;;;;5.40;4.00;;;;;;;5.41;59.09;100529.38;214384;1274;141189;-74
2022/03/08 14:45:51;;;;;;;4.50;3.30;;;;;;;5.23;59.05;100531.49;214310;1275;142004;-77
2022/03/08 14:51:16;;;;;;;9.20;4.70;;;;;;;5.21;59.12;100539.14;214628;1274;140520;-75
2022/03/08 14:56:22;;;;;;;7.20;3.20;;;;;;;5.24;59.06;100541.10;215446;1274;139887;-73
2022/03/08 15:01:31;;;;;;;7.00;4.20;;;;;;;5.28;59.02;100541.03;214897;1274;140245;-73
2022/03/08 15:06:37;;;;;;;4.70;3.10;;;;;;;5.32;59.22;100536.02;215890;1273;139980;-76
2022/03/08 15:11:42;;;;;;;4.70;4.20;;;;;;;5.40;59.21;100536.84;215899;1274;140250;-74
2022/03/08 15:16:47;;;;;;;38.50;21.90;;;;;;;5.40;58.99;100538.11;214831;1274;140521;-77
2022/03/08 15:21:53;;;;;;;9.10;5.00;;;;;;;5.35;59.22;100539.54;214529;1274;143209;-76
2022/03/08 15:26:59;;;;;;;5.90;4.10;;;;;;;5.30;59.13;100544.48;215242;1276;144413;-72
2022/03/08 15:32:04;;;;;;;5.20;4.60;;;;;;;5.22;58.82;100544.45;213875;1274;141394;-76
2022/03/08 15:37:09;;;;;;;6.30;4.30;;;;;;;5.17;59.24;100547.48;213362;1274;140177;-77
2022/03/08 15:42:14;;;;;;;5.90;4.50;;;;;;;5.06;59.20;100547.30;213519;1275;141306;-77
2022/03/08 15:47:19;;;;;;;5.00;3.20;;;;;;;4.98;59.35;100544.35;214614;1274;139452;-75
2022/03/08 15:52:25;;;;;;;4.00;3.30;;;;;;;4.96;59.73;100549.79;213333;1276;139383;-74
2022/03/08 15:57:29;;;;;;;6.30;4.00;;;;;;;4.95;59.73;100551.74;214934;1274;141115;-75
2022/03/08 16:02:34;;;;;;;7.30;5.60;;;;;;;4.89;60.01;100551.16;214701;1274;140089;-76
2022/03/08 16:07:40;;;;;;;8.20;5.50;;;;;;;4.88;60.10;100551.39;213687;1275;140106;-74
2022/03/08 16:12:51;;;;;;;9.30;5.30;;;;;;;4.85;60.11;100553.95;213361;1274;140390;-73
2022/03/08 16:17:56;;;;;;;8.70;6.00;;;;;;;4.78;60.56;100550.51;213363;1274;142157;-70
2022/03/08 16:23:02;;;;;;;5.40;4.50;;;;;;;4.71;60.41;100552.00;213367;1274;141796;-73
2022/03/08 16:28:08;;;;;;;6.50;4.80;;;;;;;4.63;60.51;100551.23;213339;1277;140047;-73
2022/03/08 16:33:15;;;;;;;6.90;4.60;;;;;;;4.56;60.62;100553.77;213507;1274;139646;-72
2022/03/08 16:38:20;;;;;;;6.60;5.10;;;;;;;4.47;60.73;100555.19;213194;1274;139949;-73
2022/03/08 16:43:25;;;;;;;5.70;5.10;;;;;;;4.38;61.02;100560.41;214601;1274;139883;-73
2022/03/08 16:48:30;;;;;;;7.80;4.80;;;;;;;4.33;61.06;100564.66;214635;1274;140043;-73
2022/03/08 16:53:35;;;;;;;7.00;5.30;;;;;;;4.29;61.16;100568.20;215142;1274;140055;-73
2022/03/08 16:58:43;;;;;;;6.70;6.10;;;;;;;4.26;61.00;100570.47;214630;1274;140448;-72
2022/03/08 17:03:47;;;;;;;7.30;6.30;;;;;;;4.24;61.22;100575.55;214320;1274;139491;-74
2022/03/08 17:08:52;;;;;;;8.30;6.30;;;;;;;4.22;61.29;100567.91;214894;1274;140668;-74
2022/03/08 17:13:56;;;;;;;12.60;6.50;;;;;;;4.18;61.32;100570.67;214823;1274;140937;-74
2022/03/08 17:19:01;;;;;;;14.60;8.90;;;;;;;4.15;61.38;100563.55;215946;1274;141181;-76
2022/03/08 17:24:06;;;;;;;13.00;8.70;;;;;;;4.08;61.54;100559.45;215876;1274;141046;-75
2022/03/08 17:29:10;;;;;;;16.80;9.90;;;;;;;3.92;61.64;100555.16;213985;1274;141290;-75
2022/03/08 17:34:16;;;;;;;19.30;11.50;;;;;;;3.74;61.65;100551.09;214017;1274;139869;-69
2022/03/08 17:39:21;;;;;;;19.00;11.00;;;;;;;3.61;61.57;100548.59;215738;1274;140393;-71
2022/03/08 17:44:26;;;;;;;19.10;11.30;;;;;;;3.45;61.62;100544.92;214781;1274;141252;-72
2022/03/08 17:49:31;;;;;;;16.00;11.10;;;;;;;3.25;61.68;100542.48;215676;1274;140350;-74
2022/03/08 17:54:35;;;;;;;23.20;12.20;;;;;;;3.06;61.92;100541.77;215280;1274;141254;-69
2022/03/08 17:59:41;;;;;;;15.20;10.40;;;;;;;2.87;61.80;100540.20;214067;1274;140675;-76
2022/03/08 18:04:45;;;;;;;13.10;9.90;;;;;;;2.66;62.51;100538.80;214926;1274;141614;-75
2022/03/08 18:09:50;;;;;;;19.00;10.40;;;;;;;2.45;62.53;100538.21;213605;1274;143175;-76
2022/03/08 18:14:55;;;;;;;24.50;14.00;;;;;;;2.30;62.56;100543.06;213536;1274;140796;-73
2022/03/08 18:20:00;;;;;;;25.50;13.30;;;;;;;2.12;62.71;100542.59;213096;1274;140803;-73
2022/03/08 18:25:04;;;;;;;20.20;13.20;;;;;;;1.93;63.08;100542.61;214329;1274;140482;-74
2022/03/08 18:30:11;;;;;;;38.40;19.80;;;;;;;1.76;63.64;100548.12;213394;1277;139926;-73
2022/03/08 18:35:16;;;;;;;38.10;20.70;;;;;;;1.58;64.06;100546.98;213203;1276;140619;-75
2022/03/08 18:40:22;;;;;;;38.30;20.20;;;;;;;1.43;63.86;100548.88;213671;1276;141325;-72
2022/03/08 18:45:27;;;;;;;24.10;15.60;;;;;;;1.31;64.53;100551.82;214079;1277;142022;-69
2022/03/08 18:50:30;;;;;;;29.00;15.80;;;;;;;1.14;64.53;100546.05;213100;1276;141068;-74
2022/03/08 18:55:34;;;;;;;23.60;15.90;;;;;;;0.99;64.50;100533.55;213414;1276;141819;-73
2022/03/08 19:00:38;;;;;;;51.00;27.90;;;;;;;0.85;64.95;100532.02;214272;1276;141162;-73
2022/03/08 19:05:42;;;;;;;47.40;24.30;;;;;;;0.73;65.01;100528.66;214263;1276;142517;-74
2022/03/08 19:10:48;;;;;;;47.60;23.50;;;;;;;0.68;65.58;100524.27;215945;1276;141292;-73
2022/03/08 19:15:52;;;;;;;45.40;21.00;;;;;;;0.65;65.67;100524.96;215529;1276;140453;-76
2022/03/08 19:21:16;;;;;;;51.40;20.10;;;;;;;0.60;65.76;100526.05;215616;1276;141364;-71
2022/03/08 19:26:20;;;;;;;43.50;20.40;;;;;;;0.53;66.03;100525.39;215841;1274;141079;-70
2022/03/08 19:31:24;;;;;;;30.70;14.20;;;;;;;0.48;66.13;100531.15;215072;1274;141037;-74
2022/03/08 19:36:30;;;;;;;41.50;20.90;;;;;;;0.31;66.22;100533.31;213868;1274;141532;-75
2022/03/08 19:41:35;;;;;;;35.30;20.20;;;;;;;0.15;66.66;100540.92;214147;1274;140698;-76
2022/03/08 19:46:40;;;;;;;43.30;21.50;;;;;;;0.12;66.98;100539.84;214023;1274;142841;-74
2022/03/08 19:51:48;;;;;;;39.80;19.80;;;;;;;0.09;67.08;100539.94;213933;1274;143114;-69
2022/03/08 19:56:52;;;;;;;34.90;18.70;;;;;;;0.04;67.10;100539.75;212768;1274;141912;-74
2022/03/08 20:01:56;;;;;;;56.60;26.90;;;;;;;0.00;67.31;100543.08;213656;1274;141187;-70
2022/03/08 20:07:05;;;;;;;59.30;30.80;;;;;;;-0.07;67.60;100556.73;214696;1274;141455;-76
2022/03/08 20:12:12;;;;;;;62.00;33.20;;;;;;;-0.16;68.22;100560.39;213177;1274;141460;-71
2022/03/08 20:17:17;;;;;;;55.90;28.60;;;;;;;-0.23;68.26;100568.22;213185;1274;142254;-68
2022/03/08 20:22:22;;;;;;;29.40;16.60;;;;;;;-0.35;68.18;100579.11;213484;1272;141971;-71
2022/03/08 20:27:27;;;;;;;40.80;17.70;;;;;;;-0.54;68.20;100579.38;213530;1274;142226;-74
2022/03/08 20:32:36;;;;;;;24.80;16.00;;;;;;;-0.66;68.64;100585.55;214370;1274;140964;-76
2022/03/08 20:37:42;;;;;;;28.10;18.60;;;;;;;-0.69;69.11;100590.15;214400;1274;233038;-74
2022/03/08 20:42:47;;;;;;;41.90;22.00;;;;;;;-0.69;69.39;100595.96;214468;1274;140832;-76
2022/03/08 20:47:51;;;;;;;39.80;18.10;;;;;;;-0.62;70.08;100596.85;213984;1274;141705;-73
2022/03/08 20:52:56;;;;;;;63.30;29.50;;;;;;;-0.54;70.47;100598.55;213387;1275;140603;-68
2022/03/08 20:58:01;;;;;;;58.50;28.50;;;;;;;-0.47;70.52;100598.41;213728;1274;141863;-67
2022/03/08 21:03:05;;;;;;;49.20;25.30;;;;;;;-0.39;70.68;100601.02;213886;1274;143993;-77
2022/03/08 21:08:09;;;;;;;60.30;26.40;;;;;;;-0.28;70.69;100602.39;213959;1274;143376;-72
2022/03/08 21:13:15;;;;;;;45.10;23.90;;;;;;;-0.16;70.83;100595.36;215164;1274;141885;-71
2022/03/08 21:18:19;;;;;;;47.60;23.40;;;;;;;-0.05;71.25;100591.79;214391;1274;140999;-73
2022/03/08 21:23:25;;;;;;;45.70;24.30;;;;;;;0.05;71.22;100584.77;215645;1273;161924;-75
2022/03/08 21:28:30;;;;;;;52.80;28.30;;;;;;;0.04;71.18;100585.05;215866;1274;142151;-75
2022/03/08 21:33:36;;;;;;;45.60;25.00;;;;;;;0.05;71.15;100588.44;215036;1274;141576;-65
2022/03/08 21:38:40;;;;;;;33.10;17.50;;;;;;;0.07;71.38;100588.27;215898;1274;150878;-75
2022/03/08 21:43:45;;;;;;;41.10;20.50;;;;;;;0.07;71.70;100588.38;214674;1274;141798;-69
2022/03/08 21:48:50;;;;;;;38.90;21.00;;;;;;;0.17;71.80;100590.60;215963;1274;141121;-75
2022/03/08 21:53:55;;;;;;;44.40;21.90;;;;;;;0.31;71.99;100590.25;214888;1274;141950;-75
2022/03/08 21:59:00;;;;;;;41.40;22.00;;;;;;;0.42;72.07;100596.92;215043;1274;142241;-76
2022/03/08 22:04:08;;;;;;;37.90;21.20;;;;;;;0.45;71.94;100592.79;214874;1274;139822;-76
2022/03/08 22:09:14;;;;;;;32.90;17.50;;;;;;;0.43;71.82;100583.76;214039;1274;141163;-72
2022/03/08 22:14:18;;;;;;;34.50;18.00;;;;;;;0.43;72.04;100583.58;214404;1274;140106;-72
2022/03/08 22:19:26;;;;;;;30.60;17.80;;;;;;;0.44;71.91;100585.08;214254;1274;140845;-74
2022/03/08 22:24:30;;;;;;;33.60;17.50;;;;;;;0.47;71.94;100587.31;213113;1274;140958;-71
2022/03/08 22:29:35;;;;;;;37.80;20.70;;;;;;;0.51;72.38;100596.70;213511;1274;141596;-72
2022/03/08 22:34:40;;;;;;;59.30;31.90;;;;;;;0.56;71.91;100584.88;213754;1274;141856;-67
2022/03/08 22:39:45;;;;;;;53.00;29.00;;;;;;;0.56;72.12;100579.67;214250;1274;140514;-71
2022/03/08 22:44:50;;;;;;;51.10;28.70;;;;;;;0.53;72.18;100574.02;213374;1274;139677;-72
2022/03/08 22:55:20;;;;;;;49.00;30.60;;;;;;;0.50;72.54;100571.70;213716;1274;140878;-65
2022/03/08 23:00:32;;;;;;;43.60;25.90;;;;;;;0.51;72.40;100564.89;214156;1274;141041;-69
2022/03/08 23:05:37;;;;;;;46.70;27.10;;;;;;;0.56;72.32;100564.91;214296;1274;142056;-73
2022/03/08 23:10:43;;;;;;;45.00;29.30;;;;;;;0.62;72.62;100558.75;213686;1274;140919;-72